createdAt,value
2023-04-24T00:01:26.270Z,7.00
2023-04-24T00:04:00.612Z,6.63
2023-04-24T00:06:34.183Z,6.10
2023-04-24T00:09:03.678Z,7.90
2023-04-24T00:11:33.003Z,8.83
2023-04-24T00:14:02.209Z,5.40
2023-04-24T00:16:31.558Z,6.77
2023-04-24T00:19:01.959Z,5.57
2023-04-24T00:21:33.838Z,5.47
2023-04-24T00:24:02.847Z,7.30
2023-04-24T00:26:31.853Z,6.60
2023-04-24T00:29:00.882Z,6.10
2023-04-24T00:31:29.894Z,12.43
2023-04-24T00:34:00.085Z,6.27
2023-04-24T00:36:29.270Z,6.30
2023-04-24T00:39:00.644Z,6.97
2023-04-24T00:41:29.969Z,7.07
2023-04-24T00:43:59.329Z,5.23
2023-04-24T00:46:28.688Z,6.73
2023-04-24T00:48:58.637Z,6.53
2023-04-24T00:51:28.552Z,5.80
2023-04-24T00:53:59.122Z,7.50
2023-04-24T00:56:28.598Z,6.70
2023-04-24T00:58:58.173Z,7.27
2023-04-24T01:01:27.568Z,6.67
2023-04-24T01:03:57.783Z,6.20
2023-04-24T01:06:29.582Z,6.53
2023-04-24T01:09:01.447Z,6.77
2023-04-24T01:11:33.347Z,6.53
2023-04-24T01:14:03.602Z,5.90
2023-04-24T01:16:32.764Z,6.40
2023-04-24T01:19:03.880Z,6.20
2023-04-24T01:21:36.876Z,6.80
2023-04-24T01:24:08.225Z,6.10
2023-04-24T01:26:37.656Z,7.00
2023-04-24T01:29:06.823Z,7.73
2023-04-24T01:31:37.990Z,7.00
2023-04-24T01:34:07.761Z,7.23
2023-04-24T01:36:38.211Z,5.63
2023-04-24T01:39:16.055Z,7.70
2023-04-24T01:41:45.150Z,5.97
2023-04-24T01:44:14.508Z,6.83
2023-04-24T01:46:44.597Z,6.23
2023-04-24T01:49:13.955Z,7.30
2023-04-24T01:51:42.991Z,7.20
2023-04-24T01:54:13.771Z,6.50
2023-04-24T01:56:44.628Z,6.70
2023-04-24T01:59:14.190Z,6.50
2023-04-24T02:01:43.421Z,6.10
2023-04-24T02:04:12.821Z,6.50
2023-04-24T02:06:42.017Z,7.37
2023-04-24T02:09:12.957Z,6.33
2023-04-24T02:11:42.032Z,5.67
2023-04-24T02:14:11.193Z,7.03
2023-04-24T02:16:43.545Z,7.97
2023-04-24T02:19:12.910Z,6.70
2023-04-24T02:21:41.924Z,10.83
2023-04-24T02:24:14.408Z,5.73
2023-04-24T02:26:44.481Z,6.17
2023-04-24T02:29:13.577Z,9.97
2023-04-24T02:31:44.167Z,7.60
2023-04-24T02:34:13.275Z,7.93
2023-04-24T02:36:42.365Z,6.37
2023-04-24T02:39:11.618Z,7.63
2023-04-24T02:41:44.343Z,6.93
2023-04-24T02:44:13.786Z,9.13
2023-04-24T02:46:43.102Z,7.97
2023-04-24T02:49:13.164Z,6.57
2023-04-24T02:51:42.859Z,9.70
2023-04-24T02:54:12.366Z,6.23
2023-04-24T02:56:42.832Z,6.80
2023-04-24T02:59:12.539Z,7.37
2023-04-24T03:01:41.925Z,6.23
2023-04-24T03:04:11.920Z,6.80
2023-04-24T03:06:41.273Z,7.43
2023-04-24T03:09:10.402Z,10.70
2023-04-24T03:11:39.456Z,8.80
2023-04-24T03:14:12.270Z,6.73
2023-04-24T03:16:41.478Z,7.57
2023-04-24T03:19:10.525Z,6.37
2023-04-24T03:21:47.848Z,6.70
2023-04-24T03:24:16.978Z,7.87
2023-04-24T03:26:46.094Z,7.50
2023-04-24T03:29:56.441Z,8.17
2023-04-24T03:32:33.327Z,6.53
2023-04-24T03:35:03.705Z,7.20
2023-04-24T03:37:40.406Z,7.07
2023-04-24T03:40:34.633Z,7.20
2023-04-24T03:43:05.269Z,7.90
2023-04-24T03:45:36.139Z,7.50
2023-04-24T03:48:05.408Z,8.80
2023-04-24T03:50:35.537Z,7.10
2023-04-24T03:53:04.791Z,8.53
2023-04-24T03:55:40.283Z,7.33
2023-04-24T03:58:09.514Z,7.17
2023-04-24T04:00:41.488Z,7.37
2023-04-24T04:03:29.272Z,7.53
2023-04-24T04:05:58.623Z,9.53
2023-04-24T04:08:27.761Z,7.10
2023-04-24T04:10:57.022Z,6.53
2023-04-24T04:13:26.065Z,7.00
2023-04-24T04:15:56.820Z,7.30
2023-04-24T04:18:26.245Z,8.73
2023-04-24T04:20:55.359Z,15.27
2023-04-24T04:23:24.446Z,7.53
2023-04-24T04:26:33.821Z,6.90
2023-04-24T04:29:08.177Z,7.47
2023-04-24T04:31:43.462Z,6.53
2023-04-24T04:34:15.304Z,7.40
2023-04-24T04:36:45.497Z,7.80
2023-04-24T04:39:44.211Z,7.87
2023-04-24T04:42:20.296Z,7.73
2023-04-24T04:44:49.540Z,7.77
2023-04-24T04:47:25.122Z,7.30
2023-04-24T04:49:56.238Z,5.00
2023-04-24T04:52:28.978Z,6.40
2023-04-24T04:55:07.866Z,8.77
2023-04-24T04:57:58.538Z,6.70
2023-04-24T05:00:35.009Z,6.93
2023-04-24T05:03:20.753Z,6.30
2023-04-24T05:05:55.141Z,5.73
2023-04-24T05:08:27.601Z,4.10
2023-04-24T05:10:58.553Z,6.63
2023-04-24T05:13:39.375Z,5.07
2023-04-24T05:16:28.112Z,9.20
2023-04-24T05:18:59.704Z,5.93
2023-04-24T05:21:34.643Z,8.00
2023-04-24T05:24:03.777Z,5.23
2023-04-24T05:26:53.339Z,5.33
2023-04-24T05:29:28.338Z,5.20
2023-04-24T05:32:00.615Z,5.30
2023-04-24T05:34:33.281Z,5.80
2023-04-24T05:37:02.472Z,5.33
2023-04-24T05:39:31.719Z,5.53
2023-04-24T05:42:02.512Z,4.17
2023-04-24T05:44:31.654Z,4.60
2023-04-24T05:47:01.964Z,4.57
2023-04-24T05:49:34.838Z,4.67
2023-04-24T05:52:09.852Z,4.97
2023-04-24T05:54:40.875Z,10.10
2023-04-24T05:57:10.348Z,5.23
2023-04-24T05:59:54.705Z,3.97
2023-04-24T06:02:25.092Z,7.13
2023-04-24T06:04:56.702Z,6.37
2023-04-24T06:07:28.540Z,4.63
2023-04-24T06:09:59.595Z,4.10
2023-04-24T06:12:29.153Z,3.47
2023-04-24T06:15:03.560Z,4.90
2023-04-24T06:17:53.698Z,4.07
2023-04-24T06:20:25.531Z,4.30
2023-04-24T06:22:55.050Z,4.07
2023-04-24T06:25:24.348Z,2.60
2023-04-24T06:27:53.573Z,2.50
2023-04-24T06:30:26.208Z,4.50
2023-04-24T06:33:02.977Z,3.63
2023-04-24T06:35:41.951Z,3.33
2023-04-24T06:38:11.223Z,3.20
2023-04-24T06:40:41.815Z,3.17
2023-04-24T06:43:12.052Z,5.03
2023-04-24T06:45:41.664Z,4.60
2023-04-24T06:48:10.905Z,2.63
2023-04-24T06:50:41.459Z,3.00
2023-04-24T06:53:13.834Z,4.30
2023-04-24T06:55:44.216Z,3.30
2023-04-24T06:58:14.309Z,3.20
2023-04-24T07:00:43.560Z,3.50
2023-04-24T07:03:12.941Z,3.77
2023-04-24T07:05:43.715Z,2.67
2023-04-24T07:08:13.080Z,1.97
2023-04-24T07:10:42.141Z,2.33
2023-04-24T07:13:11.305Z,2.33
2023-04-24T07:15:42.562Z,2.07
2023-04-24T07:18:12.198Z,2.33
2023-04-24T07:20:43.111Z,1.83
2023-04-24T07:23:12.228Z,1.80
2023-04-24T07:25:41.390Z,1.60
2023-04-24T07:28:10.602Z,1.60
2023-04-24T07:30:40.086Z,2.70
2023-04-24T07:33:09.804Z,1.40
2023-04-24T07:35:39.214Z,3.53
2023-04-24T07:38:10.161Z,3.70
2023-04-24T07:40:41.554Z,2.37
2023-04-24T07:43:14.630Z,1.90
2023-04-24T07:45:45.495Z,2.07
2023-04-24T07:48:17.626Z,1.70
2023-04-24T07:50:47.851Z,1.70
2023-04-24T07:53:23.195Z,1.53
2023-04-24T07:55:53.519Z,1.93
2023-04-24T07:58:24.075Z,2.10
2023-04-24T08:00:54.507Z,4.53
2023-04-24T08:03:26.467Z,2.50
2023-04-24T08:05:56.572Z,2.03
2023-04-24T08:08:29.922Z,4.37
2023-04-24T08:11:03.906Z,1.97
2023-04-24T08:13:33.401Z,1.60
2023-04-24T08:16:02.717Z,1.67
2023-04-24T08:18:32.138Z,1.40
2023-04-24T08:21:02.685Z,1.53
2023-04-24T08:23:33.377Z,2.30
2023-04-24T08:26:05.812Z,2.30
2023-04-24T08:28:35.202Z,3.33
2023-04-24T08:31:04.514Z,3.50
2023-04-24T08:33:35.836Z,2.43
2023-04-24T08:36:06.149Z,1.40
2023-04-24T08:38:36.832Z,1.90
2023-04-24T08:41:06.747Z,2.07
2023-04-24T08:43:37.714Z,2.20
2023-04-24T08:46:11.165Z,1.30
2023-04-24T08:48:41.574Z,4.83
2023-04-24T08:51:11.882Z,1.27
2023-04-24T08:53:43.708Z,2.80
2023-04-24T08:56:13.733Z,1.80
2023-04-24T08:58:43.565Z,2.23
2023-04-24T09:01:13.059Z,1.80
2023-04-24T09:03:42.682Z,2.43
2023-04-24T09:06:13.407Z,2.07
2023-04-24T09:08:46.270Z,1.70
2023-04-24T09:11:15.566Z,1.80
2023-04-24T09:13:45.617Z,2.13
2023-04-24T09:16:16.493Z,2.17
2023-04-24T09:18:45.612Z,2.17
2023-04-24T09:21:15.055Z,3.10
2023-04-24T09:23:46.317Z,2.50
2023-04-24T09:26:16.000Z,2.50
2023-04-24T09:28:46.546Z,1.70
2023-04-24T09:31:19.511Z,1.70
2023-04-24T09:34:00.450Z,2.40
2023-04-24T09:36:34.117Z,1.47
2023-04-24T09:39:09.273Z,1.40
2023-04-24T09:41:45.969Z,3.80
2023-04-24T09:44:17.648Z,3.43
2023-04-24T09:46:47.691Z,2.00
2023-04-24T09:49:18.674Z,2.77
2023-04-24T09:51:47.761Z,2.63
2023-04-24T09:54:21.079Z,2.57
2023-04-24T09:56:51.805Z,2.37
2023-04-24T09:59:22.020Z,2.20
2023-04-24T10:01:51.879Z,3.00
2023-04-24T10:04:24.584Z,1.67
2023-04-24T10:06:55.271Z,3.23
2023-04-24T10:09:29.228Z,3.10
2023-04-24T10:12:01.592Z,1.70
2023-04-24T10:14:32.095Z,1.77
2023-04-24T10:17:01.965Z,2.60
2023-04-24T10:19:31.757Z,1.80
2023-04-24T10:22:05.989Z,1.27
2023-04-24T10:24:39.623Z,2.30
2023-04-24T10:27:10.596Z,2.07
2023-04-24T10:29:44.980Z,2.83
2023-04-24T10:32:14.310Z,1.63
2023-04-24T10:34:43.514Z,2.57
2023-04-24T10:37:14.592Z,1.90
2023-04-24T10:39:45.437Z,2.27
2023-04-24T10:42:18.327Z,2.60
2023-04-24T10:44:51.046Z,2.50
2023-04-24T10:47:20.236Z,2.00
2023-04-24T10:50:26.413Z,1.70
2023-04-24T10:52:56.931Z,2.07
2023-04-24T10:55:46.901Z,1.73
2023-04-24T10:58:17.967Z,2.40
2023-04-24T11:00:58.504Z,3.83
2023-04-24T11:03:30.731Z,5.73
2023-04-24T11:06:02.988Z,5.10
2023-04-24T11:08:35.336Z,2.83
2023-04-24T11:11:11.441Z,2.40
2023-04-24T11:14:11.412Z,3.43
2023-04-24T11:16:46.616Z,3.00
2023-04-24T11:19:26.312Z,5.13
2023-04-24T11:22:01.776Z,2.57
2023-04-24T11:24:35.492Z,3.27
2023-04-24T11:27:15.502Z,3.20
2023-04-24T11:29:46.593Z,3.97
2023-04-24T11:32:21.506Z,1.23
2023-04-24T11:34:53.026Z,2.30
2023-04-24T11:37:22.879Z,2.53
2023-04-24T11:39:58.264Z,5.73
2023-04-24T11:42:30.060Z,4.17
2023-04-24T11:45:01.673Z,3.57
2023-04-24T11:47:34.631Z,5.87
2023-04-24T11:50:08.708Z,6.73
2023-04-24T11:52:44.274Z,11.03
2023-04-24T11:55:30.578Z,8.10
2023-04-24T11:58:04.872Z,1.70
2023-04-24T12:00:36.944Z,4.27
2023-04-24T12:03:09.148Z,4.43
2023-04-24T12:05:38.996Z,6.10
2023-04-24T12:08:12.109Z,2.47
2023-04-24T12:10:41.419Z,1.90
2023-04-24T12:13:13.624Z,2.27
2023-04-24T12:15:47.737Z,2.37
2023-04-24T12:18:19.133Z,3.03
2023-04-24T12:20:48.793Z,2.40
2023-04-24T12:23:18.991Z,3.47
2023-04-24T12:25:48.392Z,1.60
2023-04-24T12:28:19.209Z,1.63
2023-04-24T12:30:51.446Z,3.23
2023-04-24T12:33:22.020Z,1.87
2023-04-24T12:35:55.100Z,4.40
2023-04-24T12:38:28.110Z,2.33
2023-04-24T12:41:06.582Z,3.10
2023-04-24T12:43:41.117Z,2.80
2023-04-24T12:46:11.007Z,1.20
2023-04-24T12:48:40.630Z,1.97
2023-04-24T12:51:10.065Z,2.43
2023-04-24T12:53:39.287Z,1.60
2023-04-24T12:56:08.854Z,3.37
2023-04-24T12:58:39.749Z,1.83
2023-04-24T13:01:09.090Z,1.77
2023-04-24T13:03:38.786Z,2.07
2023-04-24T13:06:08.354Z,5.23
2023-04-24T13:08:37.561Z,1.70
2023-04-24T13:11:06.919Z,2.87
2023-04-24T13:13:36.205Z,3.90
2023-04-24T13:16:07.606Z,1.97
2023-04-24T13:18:37.201Z,2.40
2023-04-24T13:21:10.276Z,3.50
2023-04-24T13:23:42.702Z,3.43
2023-04-24T13:26:14.855Z,2.13
2023-04-24T13:28:47.318Z,2.90
2023-04-24T13:32:30.968Z,3.50
2023-04-24T13:35:03.520Z,2.40
2023-04-24T13:37:32.833Z,2.13
2023-04-24T13:40:02.234Z,3.40
2023-04-24T13:42:31.551Z,3.80
2023-04-24T13:45:06.003Z,3.67
2023-04-24T13:47:46.839Z,3.60
2023-04-24T13:50:17.866Z,1.83
2023-04-24T13:52:50.726Z,5.20
2023-04-24T13:55:20.236Z,1.87
2023-04-24T13:57:50.289Z,9.73
2023-04-24T14:00:21.020Z,3.50
2023-04-24T14:02:50.493Z,1.83
2023-04-24T14:05:22.881Z,1.70
2023-04-24T14:07:52.196Z,1.60
2023-04-24T14:10:21.969Z,2.70
2023-04-24T14:12:52.018Z,5.70
2023-04-24T14:15:21.605Z,1.20
2023-04-24T14:17:51.731Z,1.67
2023-04-24T14:20:23.388Z,1.73
2023-04-24T14:22:52.778Z,3.20
2023-04-24T14:25:26.304Z,1.70
2023-04-24T14:27:55.419Z,2.63
2023-04-24T14:30:24.780Z,2.20
2023-04-24T14:33:01.522Z,2.40
2023-04-24T14:35:35.298Z,3.30
2023-04-24T14:38:04.517Z,1.50
2023-04-24T14:43:06.509Z,1.63
2023-04-24T14:45:35.766Z,2.60
2023-04-24T14:48:05.534Z,3.00
2023-04-24T14:50:39.345Z,3.00
2023-04-24T14:53:11.630Z,3.67
2023-04-24T14:55:41.457Z,3.63
2023-04-24T14:58:10.817Z,4.50
2023-04-24T15:00:40.512Z,1.80
2023-04-24T15:03:10.090Z,5.77
2023-04-24T15:05:41.285Z,1.90
2023-04-24T15:08:10.788Z,2.00
2023-04-24T15:10:40.627Z,1.90
2023-04-24T15:13:10.065Z,2.43
2023-04-24T15:15:39.501Z,2.10
2023-04-24T15:18:12.029Z,2.27
2023-04-24T15:20:43.192Z,2.70
2023-04-24T15:23:12.812Z,2.57
2023-04-24T15:25:45.137Z,3.53
2023-04-24T15:28:14.878Z,2.50
2023-04-24T15:30:44.427Z,3.23
2023-04-24T15:33:13.828Z,1.83
2023-04-24T15:35:44.899Z,2.63
2023-04-24T15:38:14.152Z,5.77
2023-04-24T15:40:43.448Z,3.43
2023-04-24T15:43:13.462Z,1.80
2023-04-24T15:45:42.726Z,2.23
2023-04-24T15:48:11.909Z,2.40
2023-04-24T15:50:41.143Z,1.77
2023-04-24T15:53:11.722Z,2.20
2023-04-24T15:55:41.199Z,3.00
2023-04-24T15:58:10.400Z,3.13
2023-04-24T16:00:39.707Z,2.27
2023-04-24T16:03:10.203Z,3.40
2023-04-24T16:05:39.886Z,5.10
2023-04-24T16:08:10.774Z,1.50
2023-04-24T16:10:40.023Z,3.53
2023-04-24T16:13:09.293Z,2.57
2023-04-24T16:15:38.405Z,2.57
2023-04-24T16:18:07.678Z,2.47
2023-04-24T16:20:36.776Z,2.23
2023-04-24T16:23:05.890Z,6.00
2023-04-24T16:25:36.296Z,5.13
2023-04-24T16:28:05.487Z,1.40
2023-04-24T16:30:34.683Z,1.63
2023-04-24T16:33:07.690Z,3.50
2023-04-24T16:35:37.515Z,1.50
2023-04-24T16:38:07.173Z,4.27
2023-04-24T16:40:38.174Z,1.80
2023-04-24T16:43:08.557Z,3.57
2023-04-24T16:45:37.901Z,2.63
2023-04-24T16:48:07.841Z,4.77
2023-04-24T16:50:37.077Z,4.50
2023-04-24T16:53:06.208Z,2.43
2023-04-24T16:55:37.038Z,2.87
2023-04-24T16:58:06.266Z,2.03
2023-04-24T17:00:35.481Z,3.40
2023-04-24T17:03:04.739Z,2.20
2023-04-24T17:05:36.062Z,2.40
2023-04-24T17:08:05.213Z,2.13
2023-04-24T17:10:34.316Z,10.53
2023-04-24T17:13:05.092Z,2.07
2023-04-24T17:15:34.549Z,1.80
2023-04-24T17:18:06.193Z,1.93
2023-04-24T17:20:37.794Z,1.83
2023-04-24T17:23:07.465Z,2.90
2023-04-24T17:25:38.959Z,4.00
2023-04-24T17:28:24.995Z,2.87
2023-04-24T17:30:58.439Z,2.10
2023-04-24T17:33:28.080Z,3.10
2023-04-24T17:35:58.173Z,2.07
2023-04-24T17:38:27.474Z,2.37
2023-04-24T17:40:56.900Z,2.00
2023-04-24T17:43:28.470Z,3.83
2023-04-24T17:45:59.430Z,2.23
2023-04-24T17:48:32.857Z,1.93
2023-04-24T17:51:05.280Z,3.63
2023-04-24T17:53:42.000Z,2.37
2023-04-24T17:56:15.222Z,3.80
2023-04-24T17:58:51.766Z,4.03
2023-04-24T18:01:27.748Z,7.97
2023-04-24T18:04:01.358Z,3.00
2023-04-24T18:06:35.589Z,2.63
2023-04-24T18:09:06.608Z,2.40
2023-04-24T18:11:55.265Z,2.43
2023-04-24T18:14:30.207Z,2.60
2023-04-24T18:17:17.206Z,2.30
2023-04-24T18:19:50.905Z,2.63
2023-04-24T18:22:28.655Z,1.60
2023-04-24T18:25:02.571Z,2.37
2023-04-24T18:27:35.031Z,2.17
2023-04-24T18:30:22.938Z,1.83
2023-04-24T18:32:59.055Z,1.47
2023-04-24T18:35:35.859Z,2.03
2023-04-24T18:38:13.569Z,3.13
2023-04-24T18:40:52.380Z,3.40
2023-04-24T18:43:28.278Z,3.90
2023-04-24T18:46:00.356Z,1.27
2023-04-24T18:48:33.504Z,3.13
2023-04-24T18:51:05.789Z,1.40
2023-04-24T18:53:35.681Z,1.20
2023-04-24T18:56:05.839Z,2.20
2023-04-24T18:58:37.578Z,3.93
2023-04-24T19:01:10.792Z,1.50
2023-04-24T19:03:40.567Z,1.90
2023-04-24T19:06:20.747Z,1.23
2023-04-24T19:08:53.014Z,1.73
2023-04-24T19:11:23.506Z,2.33
2023-04-24T19:13:53.628Z,2.23
2023-04-24T19:16:26.216Z,1.33
2023-04-24T19:18:56.242Z,1.40
2023-04-24T19:21:26.701Z,1.80
2023-04-24T19:23:57.129Z,1.20
2023-04-24T19:26:28.439Z,1.63
2023-04-24T19:28:59.240Z,1.40
2023-04-24T19:31:30.663Z,1.60
2023-04-24T19:34:00.665Z,1.60
2023-04-24T19:36:32.815Z,4.20
2023-04-24T19:39:06.399Z,2.37
2023-04-24T19:41:37.852Z,1.93
2023-04-24T19:44:10.639Z,3.13
2023-04-24T19:46:42.697Z,2.60
2023-04-24T19:49:13.663Z,2.78
2023-04-24T19:51:46.152Z,2.73
2023-04-24T19:54:20.857Z,4.10
2023-04-24T19:56:52.201Z,1.83
2023-04-24T19:59:36.344Z,3.65
2023-04-24T20:02:14.139Z,2.80
2023-04-24T20:04:55.383Z,3.80
2023-04-24T20:07:29.389Z,3.07
2023-04-24T20:10:02.274Z,3.10
2023-04-24T20:12:33.612Z,4.63
2023-04-24T20:15:04.704Z,2.10
2023-04-24T20:17:51.665Z,3.92
2023-04-24T20:20:22.579Z,3.10
2023-04-24T20:22:58.425Z,3.17
2023-04-24T20:25:29.877Z,5.53
2023-04-24T20:27:59.332Z,5.80
2023-04-24T20:30:28.918Z,2.88
2023-04-24T20:33:00.913Z,7.47
2023-04-24T20:35:35.163Z,2.55
2023-04-24T20:38:05.253Z,3.75
2023-04-24T20:40:37.632Z,2.55
2023-04-24T20:43:14.892Z,4.75
2023-04-24T20:45:47.905Z,3.90
2023-04-24T20:48:19.122Z,4.17
2023-04-24T20:50:53.673Z,6.47
2023-04-24T20:53:23.523Z,4.85
2023-04-24T20:55:54.087Z,2.53
2023-04-24T20:58:24.733Z,2.30
2023-04-24T21:00:54.446Z,3.23
2023-04-24T21:03:25.499Z,3.38
2023-04-24T21:05:56.482Z,5.37
2023-04-24T21:08:26.037Z,4.30
2023-04-24T21:10:55.674Z,3.77
2023-04-24T21:13:25.362Z,6.33
2023-04-24T21:16:01.287Z,2.97
2023-04-24T21:18:33.369Z,5.23
2023-04-24T21:21:04.168Z,6.17
2023-04-24T21:23:33.799Z,4.43
2023-04-24T21:26:03.599Z,4.53
2023-04-24T21:28:34.099Z,8.93
2023-04-24T21:31:07.664Z,5.23
2023-04-24T21:33:40.503Z,6.33
2023-04-24T21:36:26.746Z,3.93
2023-04-24T21:38:59.612Z,7.13
2023-04-24T21:41:30.265Z,6.63
2023-04-24T21:44:00.777Z,4.30
2023-04-24T21:46:33.266Z,4.45
2023-04-24T21:49:04.229Z,5.82
2023-04-24T21:51:34.030Z,5.95
2023-04-24T21:54:03.906Z,4.57
2023-04-24T21:56:33.479Z,8.90
2023-04-24T21:59:04.043Z,4.70
2023-04-24T22:01:34.549Z,6.65
2023-04-24T22:04:06.853Z,4.47
2023-04-24T22:06:36.615Z,6.28
2023-04-24T22:09:07.829Z,7.68
2023-04-24T22:11:39.157Z,6.15
2023-04-24T22:14:08.812Z,6.77
2023-04-24T22:16:39.396Z,5.18
2023-04-24T22:19:10.877Z,10.95
2023-04-24T22:21:42.722Z,10.57
2023-04-24T22:24:21.430Z,8.15
2023-04-24T22:26:51.783Z,9.88
2023-04-24T22:29:26.646Z,11.68
2023-04-24T22:32:05.023Z,5.55
2023-04-24T22:34:36.910Z,6.47
2023-04-24T22:37:18.497Z,5.00
2023-04-24T22:39:50.974Z,8.43
2023-04-24T22:42:20.740Z,7.33
2023-04-24T22:44:55.699Z,7.00
2023-04-24T22:47:28.638Z,5.10
2023-04-24T22:50:03.954Z,7.90
2023-04-24T22:52:34.250Z,5.53
2023-04-24T22:55:07.158Z,7.75
2023-04-24T22:57:37.377Z,5.10
2023-04-24T23:00:11.431Z,5.65
2023-04-24T23:02:42.672Z,7.88
2023-04-24T23:05:17.112Z,6.13
2023-04-24T23:07:47.161Z,5.13
2023-04-24T23:10:22.000Z,8.52
2023-04-24T23:13:03.883Z,7.05
2023-04-24T23:15:35.360Z,11.13
2023-04-24T23:18:05.546Z,7.93
2023-04-24T23:20:40.603Z,4.57
2023-04-24T23:23:10.477Z,9.70
2023-04-24T23:25:44.084Z,4.78
2023-04-24T23:28:14.451Z,7.10
2023-04-24T23:30:44.286Z,8.82
2023-04-24T23:33:14.685Z,6.28
2023-04-24T23:35:46.648Z,8.57
2023-04-24T23:38:16.654Z,5.68
2023-04-24T23:40:46.783Z,4.40
2023-04-24T23:43:19.050Z,7.25
2023-04-24T23:45:54.056Z,4.10
2023-04-24T23:48:29.497Z,5.53
2023-04-24T23:51:05.105Z,5.75
2023-04-24T23:53:37.276Z,5.40
2023-04-24T23:56:07.500Z,6.50
2023-04-24T23:58:43.269Z,6.10
